Price, North Carolina
Current Conditions -  °F | °C
As of 1:15 PM on Thursday 29 Jan 2015 (Local Time) from KSIF Reporting Station
Clear Clear  
Wind Chill: 42°   Ceiling: Unl
Heat Index: 47°   Visibility: 10mi
Dew Point: 23°   Wind: 9mph
Humidity: 40%   Direction: 240°WSW
Pressure: 30.16"   Gusts: 20mph
Location:  36.4831°N, 79.9235°W
Report Text: KSIF 291815Z AUTO 24008G17KT 10SM CLR 08/M05 A3016 RMK AO2 T00811049
Loading
Personal Weather Stations






























Interactive Weather Map New forecast layout! Learn more

10-Day Weather Forecast

Advertisements
Track Severe Weather on mobile